createdAt,value
2019-02-04T00:00:45.135Z,102197.22
2019-02-04T00:03:15.463Z,102197.12
2019-02-04T00:05:44.267Z,102204.75
2019-02-04T00:08:13.387Z,102199.83
2019-02-04T00:10:43.048Z,102206.48
2019-02-04T00:13:11.990Z,102205.69
2019-02-04T00:15:40.985Z,102203.92
2019-02-04T00:18:10.027Z,102208.25
2019-02-04T00:20:38.730Z,102210.31
2019-02-04T00:23:07.698Z,102212.83
2019-02-04T00:25:36.931Z,102214.30
2019-02-04T00:28:05.820Z,102210.55
2019-02-04T00:30:34.632Z,102215.47
2019-02-04T00:33:03.553Z,102217.44
2019-02-04T00:35:32.263Z,102222.34
2019-02-04T00:38:00.916Z,102220.57
2019-02-04T00:40:30.535Z,102227.51
2019-02-04T00:42:59.451Z,102228.38
2019-02-04T00:45:28.165Z,102228.04
2019-02-04T00:47:56.801Z,102226.50
2019-02-04T00:50:25.684Z,102235.80
2019-02-04T00:52:54.646Z,102229.81
2019-02-04T00:55:24.206Z,102234.81
2019-02-04T00:57:52.836Z,102234.12
2019-02-04T01:00:24.271Z,102231.97
2019-02-04T01:02:53.437Z,102238.44
2019-02-04T01:05:22.681Z,102242.59
2019-02-04T01:07:51.739Z,102237.27
2019-02-04T01:10:22.946Z,102235.09
2019-02-04T01:12:51.692Z,102240.24
2019-02-04T01:15:20.584Z,102242.46
2019-02-04T01:17:49.418Z,102237.35
2019-02-04T01:20:23.585Z,102246.34
2019-02-04T01:22:52.942Z,102259.58
2019-02-04T01:25:21.855Z,102250.54
2019-02-04T01:27:50.762Z,102251.24
2019-02-04T01:30:20.707Z,102255.75
2019-02-04T01:32:49.961Z,102255.69
2019-02-04T01:35:18.683Z,102256.35
2019-02-04T01:37:48.568Z,102261.07
2019-02-04T01:40:19.862Z,102261.02
2019-02-04T01:42:48.984Z,102272.14
2019-02-04T01:45:17.981Z,102276.47
2019-02-04T01:47:46.870Z,102276.22
2019-02-04T01:50:17.846Z,102277.69
2019-02-04T01:52:46.782Z,102281.19
2019-02-04T01:55:15.571Z,102271.00
2019-02-04T01:57:44.992Z,102279.34
2019-02-04T02:00:19.887Z,102279.30
2019-02-04T02:02:48.842Z,102284.75
2019-02-04T02:05:17.710Z,102287.91
2019-02-04T02:07:46.460Z,102285.24
2019-02-04T02:10:17.672Z,102292.02
2019-02-04T02:12:46.367Z,102292.41
2019-02-04T02:15:15.106Z,102293.02
2019-02-04T02:17:44.012Z,102295.42
2019-02-04T02:20:15.142Z,102292.13
2019-02-04T02:22:43.834Z,102292.80
2019-02-04T02:25:12.630Z,102296.70
2019-02-04T02:27:41.752Z,102299.65
2019-02-04T02:30:13.827Z,102301.35
2019-02-04T02:32:42.901Z,102297.09
2019-02-04T02:35:11.940Z,102304.37
2019-02-04T02:37:40.633Z,102304.37
2019-02-04T02:40:13.439Z,102309.86
2019-02-04T02:42:42.331Z,102312.42
2019-02-04T02:45:11.244Z,102316.56
2019-02-04T02:47:40.437Z,102318.16
2019-02-04T02:50:09.613Z,102324.13
2019-02-04T02:52:38.493Z,102319.73
2019-02-04T02:55:09.307Z,102329.23
2019-02-04T02:57:38.239Z,102333.84
2019-02-04T03:00:09.281Z,102326.96
2019-02-04T03:02:38.258Z,102330.61
2019-02-04T03:05:09.450Z,102333.20
2019-02-04T03:07:38.657Z,102341.44
2019-02-04T03:10:09.663Z,102342.50
2019-02-04T03:12:38.591Z,102337.00
2019-02-04T03:15:08.339Z,102340.65
2019-02-04T03:17:37.368Z,102335.72
2019-02-04T03:20:07.471Z,102344.09
2019-02-04T03:22:36.139Z,102343.42
2019-02-04T03:25:05.661Z,102345.37
2019-02-04T03:27:34.739Z,102347.39
2019-02-04T03:30:03.979Z,102342.31
2019-02-04T03:32:32.889Z,102352.22
2019-02-04T03:35:01.798Z,102356.34
2019-02-04T03:37:30.541Z,102355.87
2019-02-04T03:39:59.170Z,102351.94
2019-02-04T03:42:28.233Z,102356.48
2019-02-04T03:44:57.128Z,102359.11
2019-02-04T03:47:26.002Z,102366.27
2019-02-04T03:49:55.151Z,102367.85
2019-02-04T03:52:24.091Z,102365.86
2019-02-04T03:54:52.828Z,102366.20
2019-02-04T03:57:21.792Z,102374.08
2019-02-04T03:59:50.522Z,102376.63
2019-02-04T04:02:19.147Z,102377.09
2019-02-04T04:04:48.024Z,102381.70
2019-02-04T04:07:16.945Z,102384.42
2019-02-04T04:09:46.149Z,102379.92
2019-02-04T04:12:14.989Z,102379.20
2019-02-04T04:14:43.907Z,102382.39
2019-02-04T04:17:12.575Z,102382.67
2019-02-04T04:19:41.461Z,102381.51
2019-02-04T04:22:10.500Z,102386.29
2019-02-04T04:24:39.250Z,102390.04
2019-02-04T04:27:08.137Z,102389.80
2019-02-04T04:29:37.030Z,102397.75
2019-02-04T04:32:06.018Z,102392.25
2019-02-04T04:34:34.646Z,102398.03
2019-02-04T04:37:03.296Z,102391.05
2019-02-04T04:39:32.451Z,102397.58
2019-02-04T04:42:01.520Z,102396.37
2019-02-04T04:44:30.437Z,102398.14
2019-02-04T04:46:59.346Z,102401.77
2019-02-04T04:49:28.598Z,102403.72
2019-02-04T04:51:57.514Z,102403.86
2019-02-04T04:54:27.054Z,102403.18
2019-02-04T04:56:56.646Z,102393.73
2019-02-04T04:59:25.418Z,102398.56
2019-02-04T05:01:54.308Z,102409.42
2019-02-04T05:04:23.234Z,102405.52
2019-02-04T05:06:52.225Z,102414.25
2019-02-04T05:09:21.101Z,102411.38
2019-02-04T05:11:49.824Z,102416.63
2019-02-04T05:14:18.596Z,102423.66
2019-02-04T05:16:47.306Z,102420.30
2019-02-04T05:19:15.927Z,102421.39
2019-02-04T05:21:44.591Z,102421.06
2019-02-04T05:24:13.515Z,102415.38
2019-02-04T05:26:43.187Z,102419.84
2019-02-04T05:29:11.859Z,102422.75
2019-02-04T05:31:40.950Z,102417.87
2019-02-04T05:34:09.824Z,102419.84
2019-02-04T05:36:38.756Z,102420.54
2019-02-04T05:39:08.600Z,102415.33
2019-02-04T05:41:37.813Z,102423.98
2019-02-04T05:44:06.563Z,102423.59
2019-02-04T05:46:35.458Z,102428.62
2019-02-04T05:49:04.113Z,102424.16
2019-02-04T05:51:33.018Z,102420.17
2019-02-04T05:54:01.748Z,102427.34
2019-02-04T05:56:31.484Z,102427.25
2019-02-04T05:59:00.457Z,102432.53
2019-02-04T06:01:29.094Z,102432.22
2019-02-04T06:03:57.748Z,102436.02
2019-02-04T06:06:26.682Z,102442.83
2019-02-04T06:08:56.100Z,102446.16
2019-02-04T06:11:25.380Z,102447.63
2019-02-04T06:13:54.066Z,102441.19
2019-02-04T06:16:22.673Z,102442.69
2019-02-04T06:19:00.431Z,102450.84
2019-02-04T06:21:22.194Z,102450.07
2019-02-04T06:23:52.207Z,102450.84
2019-02-04T06:26:21.309Z,102446.52
2019-02-04T06:28:50.001Z,102451.91
2019-02-04T06:31:18.649Z,102452.45
2019-02-04T06:33:47.549Z,102456.79
2019-02-04T06:36:16.684Z,102460.25
2019-02-04T06:38:45.396Z,102464.09
2019-02-04T06:41:14.570Z,102459.48
2019-02-04T06:43:43.457Z,102468.42
2019-02-04T06:46:12.099Z,102471.13
2019-02-04T06:48:41.135Z,102474.44
2019-02-04T06:51:09.790Z,102473.83
2019-02-04T06:53:38.445Z,102477.36
2019-02-04T06:56:07.618Z,102472.59
2019-02-04T06:58:36.524Z,102471.81
2019-02-04T07:01:05.477Z,102478.11
2019-02-04T07:03:34.466Z,102473.67
2019-02-04T07:06:03.149Z,102482.20
2019-02-04T07:08:32.010Z,102473.31
2019-02-04T07:11:01.384Z,102468.45
2019-02-04T07:13:30.139Z,102475.03
2019-02-04T07:15:58.792Z,102476.94
2019-02-04T07:18:27.684Z,102478.77
2019-02-04T07:20:57.252Z,102476.01
2019-02-04T07:23:25.917Z,102478.36
2019-02-04T07:25:54.830Z,102478.36
2019-02-04T07:28:23.805Z,102468.62
2019-02-04T07:30:53.011Z,102471.68
2019-02-04T07:33:21.625Z,102471.22
2019-02-04T07:35:50.549Z,102464.30
2019-02-04T07:38:19.215Z,102463.42
2019-02-04T07:40:47.866Z,102465.37
2019-02-04T07:43:16.836Z,102460.27
2019-02-04T07:45:45.743Z,102459.27
2019-02-04T07:48:14.632Z,102464.20
2019-02-04T07:50:43.525Z,102455.86
2019-02-04T07:53:12.412Z,102458.23
2019-02-04T07:55:41.356Z,102452.59
2019-02-04T07:58:10.446Z,102456.20
2019-02-04T08:00:39.631Z,102454.13
2019-02-04T08:03:08.629Z,102437.03
2019-02-04T08:05:37.383Z,102437.97
2019-02-04T08:08:06.344Z,102440.31
2019-02-04T08:10:35.437Z,102441.77
2019-02-04T08:13:04.596Z,102442.02
2019-02-04T08:15:35.619Z,102439.60
2019-02-04T08:18:05.580Z,102438.07
2019-02-04T08:20:34.443Z,102442.77
2019-02-04T08:23:03.084Z,102443.75
2019-02-04T08:25:31.845Z,102443.28
2019-02-04T08:28:00.608Z,102432.27
2019-02-04T08:30:31.739Z,102433.37
2019-02-04T08:33:00.722Z,102433.20
2019-02-04T08:35:30.561Z,102432.26
2019-02-04T08:37:59.695Z,102423.05
2019-02-04T08:40:28.518Z,102411.43
2019-02-04T08:42:57.336Z,102416.33
2019-02-04T08:45:26.202Z,102412.89
2019-02-04T08:47:55.082Z,102410.61
2019-02-04T08:50:24.255Z,102406.39
2019-02-04T08:52:53.488Z,102398.80
2019-02-04T08:55:22.182Z,102404.14
2019-02-04T08:57:51.449Z,102403.16
2019-02-04T09:00:21.045Z,102395.29
2019-02-04T09:02:50.131Z,102405.42
2019-02-04T09:05:18.996Z,102395.23
2019-02-04T09:07:48.259Z,102399.91
2019-02-04T09:10:29.024Z,102402.41
2019-02-04T09:12:58.171Z,102402.59
2019-02-04T09:15:26.878Z,102413.58
2019-02-04T09:17:55.870Z,102407.80
2019-02-04T09:20:25.153Z,102408.00
2019-02-04T09:22:54.098Z,102401.58
2019-02-04T09:25:23.899Z,102399.16
2019-02-04T09:27:53.067Z,102416.12
2019-02-04T09:30:23.572Z,102404.55
2019-02-04T09:32:52.941Z,102404.89
2019-02-04T09:35:21.987Z,102396.30
2019-02-04T09:37:51.099Z,102397.92
2019-02-04T09:40:23.305Z,102387.22
2019-02-04T09:42:52.391Z,102399.81
2019-02-04T09:45:24.271Z,102414.93
2019-02-04T09:47:51.665Z,102394.75
2019-02-04T09:50:22.172Z,102413.22
2019-02-04T09:52:51.149Z,102403.02
2019-02-04T09:55:22.436Z,102400.89
2019-02-04T09:57:51.216Z,102394.14
2019-02-04T10:00:22.401Z,102386.05
2019-02-04T10:02:51.295Z,102382.88
2019-02-04T10:05:20.139Z,102390.83
2019-02-04T10:07:49.082Z,102386.55
2019-02-04T10:10:20.425Z,102380.42
2019-02-04T10:12:52.350Z,102396.64
2019-02-04T10:15:25.726Z,102406.11
2019-02-04T10:17:54.555Z,102396.83
2019-02-04T10:20:33.490Z,102398.81
2019-02-04T10:22:53.884Z,102407.33
2019-02-04T10:25:24.564Z,102404.14
2019-02-04T10:27:53.522Z,102417.98
2019-02-04T10:30:23.185Z,102407.53
2019-02-04T10:32:51.903Z,102405.76
2019-02-04T10:35:20.646Z,102399.59
2019-02-04T10:37:50.553Z,102399.92
2019-02-04T10:40:21.215Z,102407.51
2019-02-04T10:42:49.875Z,102397.34
2019-02-04T10:45:19.211Z,102414.94
2019-02-04T10:47:48.651Z,102395.99
2019-02-04T10:50:45.630Z,102398.92
2019-02-04T10:53:08.981Z,102422.98
2019-02-04T10:55:37.899Z,102398.16
2019-02-04T10:58:08.244Z,102396.20
2019-02-04T11:00:37.410Z,102393.09
2019-02-04T11:03:06.812Z,102392.23
2019-02-04T11:05:36.038Z,102388.86
2019-02-04T11:08:05.725Z,102396.41
2019-02-04T11:10:35.798Z,102383.30
2019-02-04T11:13:14.163Z,102390.93
2019-02-04T11:15:43.897Z,102392.06
2019-02-04T11:18:13.351Z,102395.27
2019-02-04T11:20:42.457Z,102417.37
2019-02-04T11:23:11.168Z,102402.06
2019-02-04T11:25:40.172Z,102390.47
2019-02-04T11:28:10.511Z,102392.78
2019-02-04T11:30:51.240Z,102410.27
2019-02-04T11:33:20.566Z,102385.70
2019-02-04T11:35:49.700Z,102398.70
2019-02-04T11:38:18.669Z,102400.25
2019-02-04T11:40:47.263Z,102391.66
2019-02-04T11:43:16.044Z,102378.03
2019-02-04T11:45:44.867Z,102383.30
2019-02-04T11:48:14.740Z,102384.80
2019-02-04T11:50:43.569Z,102383.09
2019-02-04T11:53:12.581Z,102381.59
2019-02-04T11:55:41.484Z,102370.80
2019-02-04T11:58:10.359Z,102385.87
2019-02-04T12:00:41.676Z,102383.11
2019-02-04T12:03:12.378Z,102365.67
2019-02-04T12:05:41.333Z,102367.91
2019-02-04T12:08:10.769Z,102367.30
2019-02-04T12:10:42.837Z,102362.20
2019-02-04T12:13:12.117Z,102368.48
2019-02-04T12:15:41.774Z,102361.95
2019-02-04T12:18:10.876Z,102359.39
2019-02-04T12:20:40.109Z,102360.42
2019-02-04T12:23:09.022Z,102370.55
2019-02-04T12:25:38.052Z,102368.70
2019-02-04T12:28:07.221Z,102363.40
2019-02-04T12:30:38.438Z,102370.16
2019-02-04T12:33:09.264Z,102370.28
2019-02-04T12:35:37.916Z,102370.09
2019-02-04T12:38:06.731Z,102372.80
2019-02-04T12:40:36.131Z,102345.22
2019-02-04T12:43:04.905Z,102360.38
2019-02-04T12:45:34.570Z,102346.51
2019-02-04T12:48:03.623Z,102355.14
2019-02-04T12:50:32.676Z,102345.14
2019-02-04T12:53:01.549Z,102345.66
2019-02-04T12:55:30.813Z,102362.91
2019-02-04T12:57:59.790Z,102347.75
2019-02-04T13:00:29.101Z,102343.97
2019-02-04T13:02:57.890Z,102365.27
2019-02-04T13:05:30.219Z,102359.55
2019-02-04T13:07:59.187Z,102348.31
2019-02-04T13:10:27.948Z,102352.57
2019-02-04T13:12:56.986Z,102345.86
2019-02-04T13:15:26.526Z,102352.80
2019-02-04T13:17:55.588Z,102349.11
2019-02-04T13:20:24.405Z,102334.83
2019-02-04T13:22:53.115Z,102351.07
2019-02-04T13:25:23.704Z,102337.38
2019-02-04T13:27:52.615Z,102341.09
2019-02-04T13:30:23.460Z,102340.64
2019-02-04T13:32:52.096Z,102340.00
2019-02-04T13:35:20.978Z,102328.73
2019-02-04T13:37:49.922Z,102332.88
2019-02-04T13:40:24.325Z,102336.59
2019-02-04T13:42:53.481Z,102325.87
2019-02-04T13:45:22.597Z,102336.44
2019-02-04T13:47:51.731Z,102326.34
2019-02-04T13:50:20.822Z,102341.69
2019-02-04T13:52:50.737Z,102338.32
2019-02-04T13:55:25.234Z,102331.00
2019-02-04T13:57:54.259Z,102341.02
2019-02-04T14:00:23.618Z,102334.78
2019-02-04T14:02:59.298Z,102328.35
2019-02-04T14:05:23.103Z,102329.88
2019-02-04T14:07:52.065Z,102331.81
2019-02-04T14:10:26.561Z,102335.14
2019-02-04T14:12:55.266Z,102332.89
2019-02-04T14:15:24.540Z,102322.21
2019-02-04T14:17:53.704Z,102329.47
2019-02-04T14:20:23.016Z,102327.27
2019-02-04T14:22:53.415Z,102318.84
2019-02-04T14:25:22.536Z,102321.81
2019-02-04T14:27:51.499Z,102322.30
2019-02-04T14:30:23.078Z,102328.55
2019-02-04T14:32:52.354Z,102321.92
2019-02-04T14:35:21.303Z,102320.04
2019-02-04T14:37:50.237Z,102322.45
2019-02-04T14:40:19.135Z,102313.90
2019-02-04T14:42:50.694Z,102307.59
2019-02-04T14:45:30.800Z,102310.89
2019-02-04T14:48:12.831Z,102306.47
2019-02-04T14:50:56.409Z,102306.11
2019-02-04T14:54:12.006Z,102318.27
2019-02-04T14:57:21.103Z,102313.90
2019-02-04T15:00:03.062Z,102305.30
2019-02-04T15:03:19.645Z,102308.83
2019-02-04T15:06:15.286Z,102308.83
2019-02-04T15:09:08.384Z,102305.69
2019-02-04T15:12:13.769Z,102291.41
2019-02-04T15:15:00.339Z,102304.41
2019-02-04T15:17:55.592Z,102299.58
2019-02-04T15:20:54.137Z,102297.02
2019-02-04T15:24:09.071Z,102289.59
2019-02-04T15:27:06.598Z,102288.78
2019-02-04T15:29:46.863Z,102287.70
2019-02-04T15:32:46.330Z,102293.16
2019-02-04T15:35:51.103Z,102278.98
2019-02-04T15:38:52.634Z,102275.17
2019-02-04T15:41:42.435Z,102279.62
2019-02-04T15:44:36.527Z,102272.87
2019-02-04T15:47:15.872Z,102275.44
2019-02-04T15:50:06.857Z,102269.51
2019-02-04T15:52:45.170Z,102281.88
2019-02-04T15:55:10.476Z,102279.99
2019-02-04T15:57:39.117Z,102283.56
2019-02-04T16:00:08.611Z,102274.97
2019-02-04T16:02:37.278Z,102264.20
2019-02-04T16:05:07.288Z,102266.92
2019-02-04T16:07:36.134Z,102269.81
2019-02-04T16:10:07.427Z,102259.25
2019-02-04T16:12:36.311Z,102257.77
2019-02-04T16:15:05.965Z,102255.40
2019-02-04T16:17:34.790Z,102259.14
2019-02-04T16:20:04.250Z,102257.53
2019-02-04T16:22:33.407Z,102250.23
2019-02-04T16:25:02.299Z,102260.59
2019-02-04T16:27:31.270Z,102245.33
2019-02-04T16:30:00.554Z,102246.30
2019-02-04T16:32:29.399Z,102251.76
2019-02-04T16:34:58.273Z,102253.77
2019-02-04T16:37:27.198Z,102247.02
2019-02-04T16:39:56.373Z,102242.77
2019-02-04T16:42:25.563Z,102234.81
2019-02-04T16:44:54.425Z,102241.23
2019-02-04T16:47:23.706Z,102233.13
2019-02-04T16:49:52.370Z,102230.64
2019-02-04T16:52:21.325Z,102242.20
2019-02-04T16:54:50.274Z,102234.05
2019-02-04T16:57:18.911Z,102233.25
2019-02-04T16:59:48.725Z,102244.02
2019-02-04T17:02:17.730Z,102230.92
2019-02-04T17:04:46.662Z,102231.48
2019-02-04T17:07:15.937Z,102225.86
2019-02-04T17:09:45.384Z,102224.50
2019-02-04T17:12:14.027Z,102217.03
2019-02-04T17:14:42.765Z,102216.95
2019-02-04T17:17:11.397Z,102222.56
2019-02-04T17:19:40.039Z,102213.17
2019-02-04T17:22:08.699Z,102217.19
2019-02-04T17:24:38.200Z,102218.71
2019-02-04T17:27:07.173Z,102220.31
2019-02-04T17:29:36.089Z,102222.89
2019-02-04T17:32:04.902Z,102210.03
2019-02-04T17:34:34.898Z,102209.72
2019-02-04T17:37:03.625Z,102216.23
2019-02-04T17:39:33.129Z,102208.84
2019-02-04T17:42:02.069Z,102204.26
2019-02-04T17:44:31.168Z,102207.88
2019-02-04T17:47:00.305Z,102205.78
2019-02-04T17:49:29.229Z,102203.89
2019-02-04T17:51:58.325Z,102209.32
2019-02-04T17:54:27.562Z,102194.57
2019-02-04T17:56:56.374Z,102193.90
2019-02-04T17:59:25.315Z,102202.33
2019-02-04T18:01:54.116Z,102210.00
2019-02-04T18:04:23.029Z,102207.75
2019-02-04T18:06:51.843Z,102196.47
2019-02-04T18:09:21.110Z,102189.52
2019-02-04T18:11:50.002Z,102234.90
2019-02-04T18:14:18.962Z,102206.63
2019-02-04T18:16:47.579Z,102189.52
2019-02-04T18:19:16.542Z,102189.59
2019-02-04T18:21:45.264Z,102179.95
2019-02-04T18:24:15.061Z,102195.45
2019-02-04T18:26:44.048Z,102185.50
2019-02-04T18:29:12.681Z,102183.97
2019-02-04T18:31:41.635Z,102184.20
2019-02-04T18:34:10.267Z,102166.05
2019-02-04T18:36:39.384Z,102187.18
2019-02-04T18:39:09.870Z,102186.30
2019-02-04T18:41:38.800Z,102181.23
2019-02-04T18:44:07.840Z,102209.19
2019-02-04T18:46:37.052Z,102194.65
2019-02-04T18:49:05.991Z,102196.81
2019-02-04T18:51:34.835Z,102190.72
2019-02-04T18:54:03.872Z,102186.33
2019-02-04T18:56:32.786Z,102184.56
2019-02-04T18:59:01.433Z,102194.25
2019-02-04T19:01:30.375Z,102185.84
2019-02-04T19:03:59.271Z,102189.63
2019-02-04T19:06:28.264Z,102202.95
2019-02-04T19:08:56.881Z,102171.70
2019-02-04T19:11:25.954Z,102183.97
2019-02-04T19:13:54.853Z,102166.48
2019-02-04T19:16:23.892Z,102167.20
2019-02-04T19:18:52.886Z,102175.48
2019-02-04T19:21:21.771Z,102169.34
2019-02-04T19:23:50.675Z,102169.45
2019-02-04T19:26:19.307Z,102170.15
2019-02-04T19:28:50.879Z,102162.70
2019-02-04T19:31:21.827Z,102168.23
2019-02-04T19:33:50.741Z,102157.14
2019-02-04T19:36:19.682Z,102153.30
2019-02-04T19:38:48.488Z,102160.84
2019-02-04T19:41:17.345Z,102156.11
2019-02-04T19:43:46.281Z,102149.30
2019-02-04T19:46:14.935Z,102157.24
2019-02-04T19:48:43.892Z,102146.08
2019-02-04T19:51:12.517Z,102138.45
2019-02-04T19:53:41.229Z,102132.09
2019-02-04T19:56:09.935Z,102119.78
2019-02-04T19:58:38.829Z,102142.78
2019-02-04T20:01:07.724Z,102121.87
2019-02-04T20:03:37.192Z,102110.30
2019-02-04T20:06:06.873Z,102102.52
2019-02-04T20:08:35.680Z,102102.59
2019-02-04T20:11:04.830Z,102124.60
2019-02-04T20:13:33.544Z,102098.95
2019-02-04T20:16:02.250Z,102123.73
2019-02-04T20:18:31.195Z,102130.16
2019-02-04T20:21:00.314Z,102098.41
2019-02-04T20:23:29.418Z,102102.41
2019-02-04T20:25:58.030Z,102107.41
2019-02-04T20:28:26.681Z,102121.33
2019-02-04T20:30:55.614Z,102144.30
2019-02-04T20:33:24.284Z,102128.39
2019-02-04T20:35:53.159Z,102098.17
2019-02-04T20:38:29.080Z,102161.84
2019-02-04T20:40:57.978Z,102121.66
2019-02-04T20:43:26.911Z,102091.52
2019-02-04T20:45:55.822Z,102085.16
2019-02-04T20:48:24.877Z,102114.25
2019-02-04T20:50:53.811Z,102073.52
2019-02-04T20:53:23.072Z,102075.58
2019-02-04T20:55:51.751Z,102087.89
2019-02-04T20:58:20.498Z,102102.92
2019-02-04T21:00:49.470Z,102077.67
2019-02-04T21:03:18.401Z,102081.38
2019-02-04T21:05:47.330Z,102089.40
2019-02-04T21:08:16.128Z,102089.95
2019-02-04T21:10:44.781Z,102106.92
2019-02-04T21:13:13.749Z,102102.67
2019-02-04T21:15:42.652Z,102112.22
2019-02-04T21:18:11.724Z,102103.47
2019-02-04T21:20:40.884Z,102107.66
2019-02-04T21:23:10.000Z,102100.34
2019-02-04T21:25:39.135Z,102110.86
2019-02-04T21:28:07.744Z,102100.83
2019-02-04T21:30:39.045Z,102123.09
2019-02-04T21:33:08.099Z,102102.67
2019-02-04T21:35:37.057Z,102113.98
2019-02-04T21:38:06.523Z,102101.13
2019-02-04T21:40:35.405Z,102109.91
2019-02-04T21:43:04.218Z,102132.31
2019-02-04T21:45:32.826Z,102094.95
2019-02-04T21:48:01.721Z,102114.23
2019-02-04T21:50:30.415Z,102098.55
2019-02-04T21:52:59.126Z,102121.95
2019-02-04T21:55:28.551Z,102105.23
2019-02-04T21:57:57.432Z,102088.84
2019-02-04T22:00:31.785Z,102096.56
2019-02-04T22:03:00.711Z,102113.05
2019-02-04T22:05:30.684Z,102107.17
2019-02-04T22:07:59.882Z,102103.65
2019-02-04T22:10:29.503Z,102121.33
2019-02-04T22:12:58.793Z,102085.97
2019-02-04T22:15:27.558Z,102095.02
2019-02-04T22:17:56.801Z,102087.71
2019-02-04T22:20:26.166Z,102087.89
2019-02-04T22:22:55.146Z,102097.04
2019-02-04T22:25:24.477Z,102110.89
2019-02-04T22:27:53.209Z,102082.01
2019-02-04T22:30:24.025Z,102093.36
2019-02-04T22:32:53.009Z,102110.94
2019-02-04T22:35:22.132Z,102085.06
2019-02-04T22:37:50.817Z,102094.14
2019-02-04T22:40:25.394Z,102093.11
2019-02-04T22:42:54.360Z,102098.81
2019-02-04T22:45:23.088Z,102073.56
2019-02-04T22:47:51.863Z,102075.73
2019-02-04T22:50:25.534Z,102091.75
2019-02-04T22:52:54.300Z,102072.75
2019-02-04T22:55:31.793Z,102100.57
2019-02-04T22:57:54.596Z,102072.27
2019-02-04T23:00:50.009Z,102068.41
2019-02-04T23:03:20.624Z,102089.80
2019-02-04T23:05:50.142Z,102064.00
2019-02-04T23:08:18.864Z,102064.34
2019-02-04T23:10:47.620Z,102065.37
2019-02-04T23:13:16.247Z,102034.20
2019-02-04T23:15:45.202Z,102056.06
2019-02-04T23:18:14.883Z,102049.97
2019-02-04T23:20:43.879Z,102064.81
2019-02-04T23:23:12.723Z,102047.22
2019-02-04T23:25:43.616Z,102045.30
2019-02-04T23:28:12.067Z,102040.64
2019-02-04T23:30:40.741Z,102043.20
2019-02-04T23:33:09.736Z,102042.66
2019-02-04T23:35:38.729Z,102030.28
2019-02-04T23:38:07.444Z,102028.33
2019-02-04T23:40:36.073Z,102026.56
2019-02-04T23:43:05.769Z,102025.94
2019-02-04T23:45:34.428Z,102028.26
2019-02-04T23:48:03.057Z,102025.47
2019-02-04T23:50:32.250Z,102012.83
2019-02-04T23:53:01.155Z,102035.75
2019-02-04T23:55:30.150Z,102028.91
2019-02-04T23:57:58.765Z,102015.58
